Time;durP1;ratioP1;P1;durP2;ratioP2;P2;SDS_P1;SDS_P2;PMS_P1;PMS_P2;Temp;Humidity;BMP_temperature;BMP_pressure;BME280_temperature;BME280_humidity;BME280_pressure;Samples;Min_cycle;Max_cycle;Signal;HPM_P1;HPM_P2
2022/11/18 00:01:16;;;;;;;113.00;71.50;;;8.70;99.90;;;;;;5070655;28;20082;-79
2022/11/18 00:03:45;;;;;;;96.90;61.22;;;8.70;99.90;;;;;;5071363;28;20060;-80
2022/11/18 00:06:14;;;;;;;99.03;61.28;;;8.70;99.90;;;;;;5071727;28;20122;-78
2022/11/18 00:08:42;;;;;;;102.72;61.47;;;8.70;99.90;;;;;;5071587;28;20074;-77
2022/11/18 00:11:11;;;;;;;102.93;64.88;;;8.70;99.90;;;;;;5072238;28;20086;-78
2022/11/18 00:16:25;;;;;;;84.38;53.30;;;8.70;99.90;;;;;;5070666;28;20036;-78
2022/11/18 00:18:52;;;;;;;75.80;48.17;;;8.70;99.90;;;;;;5070940;28;20051;-79
2022/11/18 00:21:19;;;;;;;82.60;50.92;;;8.70;99.90;;;;;;5070271;28;20532;-77
2022/11/18 00:23:49;;;;;;;78.55;46.63;;;8.80;99.90;;;;;;5070563;28;20045;-78
2022/11/18 00:26:16;;;;;;;74.82;44.78;;;8.90;99.90;;;;;;5071361;28;20086;-79
2022/11/18 00:28:45;;;;;;;76.22;46.80;;;9.00;99.90;;;;;;5069566;28;20435;-78
2022/11/18 00:31:14;;;;;;;74.10;46.85;;;9.00;99.90;;;;;;5071255;28;20501;-80
2022/11/18 00:33:41;;;;;;;79.45;44.50;;;9.10;99.90;;;;;;5069874;28;20044;-79
2022/11/18 00:36:10;;;;;;;72.72;47.17;;;9.10;99.90;;;;;;5070723;28;20032;-78
2022/11/18 00:38:38;;;;;;;74.18;45.88;;;9.10;99.90;;;;;;5074822;28;20094;-78
2022/11/18 00:41:07;;;;;;;69.15;45.70;;;9.10;99.90;;;;;;5077952;28;20832;-78
2022/11/18 00:43:34;;;;;;;75.75;48.05;;;9.10;99.90;;;;;;5079586;28;20048;-77
2022/11/18 00:46:03;;;;;;;81.75;52.17;;;9.20;99.90;;;;;;5077784;28;20051;-79
2022/11/18 00:48:31;;;;;;;86.75;51.33;;;9.20;99.90;;;;;;5076435;28;20048;-79
2022/11/18 00:51:06;;;;;;;84.00;53.13;;;9.30;99.90;;;;;;5078303;28;20045;-79
2022/11/18 00:53:33;;;;;;;89.75;56.35;;;9.30;99.90;;;;;;5074389;28;20036;-79
2022/11/18 00:56:00;;;;;;;97.70;60.50;;;9.20;99.90;;;;;;5069945;28;20048;-76
2022/11/18 00:58:28;;;;;;;91.32;57.55;;;9.20;99.90;;;;;;5068838;28;20044;-80
2022/11/18 01:00:56;;;;;;;90.25;59.95;;;9.20;99.90;;;;;;5070395;28;20484;-79
2022/11/18 01:03:25;;;;;;;79.40;52.53;;;9.20;99.90;;;;;;5072000;28;20044;-79
2022/11/18 01:05:52;;;;;;;85.80;53.58;;;9.20;99.90;;;;;;5070738;28;20047;-78
2022/11/18 01:08:20;;;;;;;94.00;56.10;;;9.20;99.90;;;;;;5070677;28;20037;-78
2022/11/18 01:10:48;;;;;;;102.13;64.03;;;9.20;99.90;;;;;;5069780;28;20106;-79
2022/11/18 01:13:18;;;;;;;89.28;55.17;;;9.20;99.90;;;;;;5070618;28;20045;-79
2022/11/18 01:15:47;;;;;;;98.18;61.08;;;9.20;99.90;;;;;;5069611;28;20036;-79
2022/11/18 01:18:15;;;;;;;100.82;66.97;;;9.20;99.90;;;;;;5069291;28;20041;-77
2022/11/18 01:20:44;;;;;;;97.07;59.60;;;9.20;99.90;;;;;;5069292;28;20072;-78
2022/11/18 01:23:12;;;;;;;88.70;55.80;;;9.30;99.90;;;;;;5069168;28;20047;-78
2022/11/18 01:25:41;;;;;;;90.03;56.20;;;9.30;99.90;;;;;;5068998;28;20036;-76
2022/11/18 01:28:08;;;;;;;97.18;59.80;;;9.30;99.90;;;;;;5069311;28;20131;-77
2022/11/18 01:30:36;;;;;;;99.32;60.22;;;9.30;99.90;;;;;;5070273;28;20068;-78
2022/11/18 01:33:04;;;;;;;103.50;65.10;;;9.30;99.90;;;;;;5069708;28;20051;-78
2022/11/18 01:35:35;;;;;;;100.72;65.00;;;9.40;99.90;;;;;;5070522;28;20098;-77
2022/11/18 01:38:03;;;;;;;104.28;63.55;;;9.40;99.90;;;;;;5067853;28;20040;-78
2022/11/18 01:40:31;;;;;;;85.22;55.65;;;9.40;99.90;;;;;;5070262;28;20078;-80
2022/11/18 01:42:59;;;;;;;86.72;56.10;;;9.40;99.90;;;;;;5069314;28;20044;-78
2022/11/18 01:45:33;;;;;;;88.55;58.13;;;9.40;99.90;;;;;;5069913;28;20062;-77
2022/11/18 01:48:04;;;;;;;91.20;60.97;;;9.40;99.90;;;;;;5068660;28;20392;-78
2022/11/18 01:50:32;;;;;;;94.55;59.45;;;9.40;99.90;;;;;;5069894;28;20087;-80
2022/11/18 01:53:09;;;;;;;94.82;59.30;;;9.40;99.90;;;;;;5069753;28;20449;-79
2022/11/18 01:55:38;;;;;;;101.35;62.88;;;9.40;99.90;;;;;;5069487;28;20041;-79
2022/11/18 01:58:10;;;;;;;102.70;64.43;;;9.40;99.90;;;;;;5068519;28;20040;-78
2022/11/18 02:00:38;;;;;;;99.90;63.03;;;9.40;99.90;;;;;;5069355;28;20094;-78
2022/11/18 02:03:06;;;;;;;93.70;59.83;;;9.40;99.90;;;;;;5069762;28;20049;-78
2022/11/18 02:05:35;;;;;;;93.18;58.83;;;9.40;99.90;;;;;;5069554;28;20047;-78
2022/11/18 02:08:05;;;;;;;103.00;66.05;;;9.30;99.90;;;;;;5067999;28;20442;-78
2022/11/18 02:10:33;;;;;;;109.47;72.65;;;9.30;99.90;;;;;;5070127;28;20546;-78
2022/11/18 02:13:01;;;;;;;130.98;87.07;;;9.20;99.90;;;;;;5069816;28;20113;-78
2022/11/18 02:15:44;;;;;;;94.30;59.90;;;9.20;99.90;;;;;;5070925;28;20040;-79
2022/11/18 02:18:20;;;;;;;99.07;62.60;;;9.10;99.90;;;;;;5070257;28;20036;-78
2022/11/18 02:20:50;;;;;;;79.13;53.80;;;9.10;99.90;;;;;;5069712;28;20033;-79
2022/11/18 02:23:56;;;;;;;86.60;55.95;;;9.10;99.90;;;;;;5068842;28;20059;-79
2022/11/18 02:27:00;;;;;;;81.03;53.70;;;9.10;99.90;;;;;;5069230;28;20538;-78
2022/11/18 02:29:33;;;;;;;88.03;56.17;;;9.10;99.90;;;;;;5068401;28;20094;-79
2022/11/18 02:32:06;;;;;;;89.93;58.38;;;9.00;99.90;;;;;;5067568;28;20056;-79
2022/11/18 02:34:41;;;;;;;95.88;59.33;;;9.00;99.90;;;;;;5069579;28;20056;-78
2022/11/18 02:37:16;;;;;;;89.30;56.80;;;9.00;99.90;;;;;;5083824;28;20062;-79
2022/11/18 02:39:52;;;;;;;98.45;55.58;;;9.00;99.90;;;;;;5069237;28;20098;-78
2022/11/18 02:42:20;;;;;;;87.07;53.80;;;9.00;99.90;;;;;;5073328;28;20131;-78
2022/11/18 02:44:55;;;;;;;85.55;54.35;;;9.00;99.90;;;;;;5072000;28;20063;-79
2022/11/18 02:47:24;;;;;;;86.78;54.50;;;9.00;99.90;;;;;;5072527;28;20048;-79
2022/11/18 02:49:56;;;;;;;79.15;49.75;;;9.00;99.90;;;;;;5071479;28;20094;-79
2022/11/18 02:52:25;;;;;;;67.32;47.80;;;9.00;99.90;;;;;;5075054;28;20048;-76
2022/11/18 02:54:54;;;;;;;75.18;49.53;;;9.00;99.90;;;;;;5079505;28;20126;-79
2022/11/18 02:57:24;;;;;;;79.38;52.83;;;9.00;99.90;;;;;;5085240;28;20087;-78
2022/11/18 02:59:53;;;;;;;73.60;47.72;;;9.00;99.90;;;;;;5078365;28;20036;-79
2022/11/18 03:02:21;;;;;;;70.45;46.53;;;8.90;99.90;;;;;;5073037;28;20538;-77
2022/11/18 03:04:51;;;;;;;73.28;46.05;;;9.00;99.90;;;;;;5073586;28;20484;-77
2022/11/18 03:07:25;;;;;;;79.65;50.50;;;9.00;99.90;;;;;;5072672;28;20472;-80
2022/11/18 03:09:53;;;;;;;90.40;56.28;;;8.90;99.90;;;;;;5072678;28;20454;-79
2022/11/18 03:12:31;;;;;;;80.05;50.63;;;8.90;99.90;;;;;;5072069;28;20142;-80
2022/11/18 03:15:06;;;;;;;61.80;42.47;;;8.80;99.90;;;;;;5070806;28;20500;-78
2022/11/18 03:17:44;;;;;;;64.78;42.42;;;8.70;99.90;;;;;;5071150;28;20052;-79
2022/11/18 03:20:18;;;;;;;68.80;42.55;;;8.70;99.90;;;;;;5072691;28;20066;-79
2022/11/18 03:22:50;;;;;;;70.07;46.00;;;8.70;99.90;;;;;;5072501;28;20048;-80
2022/11/18 03:25:23;;;;;;;66.70;44.28;;;8.70;99.90;;;;;;5071176;28;20048;-78
2022/11/18 03:27:56;;;;;;;72.32;45.13;;;8.80;99.90;;;;;;5070308;28;20082;-79
2022/11/18 03:30:26;;;;;;;64.43;43.63;;;8.70;99.90;;;;;;5072146;28;20149;-80
2022/11/18 03:32:59;;;;;;;60.53;40.58;;;8.70;99.90;;;;;;5071890;28;20443;-78
2022/11/18 03:35:31;;;;;;;64.15;41.60;;;8.70;99.90;;;;;;5070815;28;20487;-78
2022/11/18 03:38:05;;;;;;;74.85;48.55;;;8.60;99.90;;;;;;5071518;28;20037;-79
2022/11/18 03:40:33;;;;;;;72.35;47.17;;;8.60;99.90;;;;;;5072675;28;20041;-78
2022/11/18 03:43:06;;;;;;;83.30;53.20;;;8.40;99.90;;;;;;5072443;28;20062;-80
2022/11/18 03:45:38;;;;;;;70.75;47.25;;;8.40;99.90;;;;;;5071252;28;20040;-79
2022/11/18 03:48:10;;;;;;;91.63;58.80;;;8.30;99.90;;;;;;5071183;28;20044;-78
2022/11/18 03:50:42;;;;;;;98.35;63.63;;;8.30;99.90;;;;;;5071910;28;20037;-78
2022/11/18 03:53:11;;;;;;;97.20;60.35;;;8.30;99.90;;;;;;5072264;28;20072;-80
2022/11/18 03:55:41;;;;;;;67.97;44.42;;;8.30;99.90;;;;;;5072001;28;20044;-78
2022/11/18 03:58:13;;;;;;;48.72;33.03;;;8.40;99.90;;;;;;5071387;28;20052;-79
2022/11/18 04:00:45;;;;;;;44.25;28.95;;;8.40;99.90;;;;;;5072098;28;20041;-78
2022/11/18 04:03:13;;;;;;;45.25;26.98;;;8.50;99.90;;;;;;5072016;28;20040;-79
2022/11/18 04:05:42;;;;;;;34.78;22.65;;;8.50;99.90;;;;;;5071814;28;20492;-79
2022/11/18 04:08:15;;;;;;;47.80;32.35;;;8.50;99.90;;;;;;5071742;28;20040;-77
2022/11/18 04:10:47;;;;;;;51.72;34.17;;;8.50;99.90;;;;;;5071738;28;20041;-79
2022/11/18 04:13:21;;;;;;;49.92;35.05;;;8.50;99.90;;;;;;5068352;28;20052;-79
2022/11/18 04:15:50;;;;;;;56.03;37.83;;;8.50;99.90;;;;;;5071008;28;20102;-80
2022/11/18 04:18:17;;;;;;;60.15;40.33;;;8.50;99.90;;;;;;5071477;28;20056;-79
2022/11/18 04:20:44;;;;;;;60.90;41.08;;;8.60;99.90;;;;;;5072437;28;20053;-79
2022/11/18 04:23:12;;;;;;;41.75;30.10;;;8.60;99.90;;;;;;5075987;28;20036;-78
2022/11/18 04:25:39;;;;;;;42.47;28.65;;;8.60;99.90;;;;;;5075585;28;20047;-79
2022/11/18 04:28:07;;;;;;;57.55;40.75;;;8.60;99.90;;;;;;5070446;28;20153;-79
2022/11/18 04:30:34;;;;;;;52.33;34.88;;;8.70;99.90;;;;;;5071299;28;20064;-77
2022/11/18 04:33:04;;;;;;;47.33;32.63;;;8.70;99.90;;;;;;5071360;28;20048;-80
2022/11/18 04:35:31;;;;;;;55.08;36.45;;;8.80;99.90;;;;;;5071469;28;20717;-78
2022/11/18 04:37:58;;;;;;;49.88;35.10;;;8.80;99.90;;;;;;5070674;28;20471;-77
2022/11/18 04:40:25;;;;;;;52.83;34.55;;;8.80;99.90;;;;;;5071587;28;20232;-78
2022/11/18 04:42:53;;;;;;;53.05;35.63;;;8.80;99.90;;;;;;5071206;28;20044;-77
2022/11/18 04:45:20;;;;;;;54.25;35.38;;;8.80;99.90;;;;;;5070218;28;20040;-79
2022/11/18 04:47:47;;;;;;;52.28;33.30;;;8.90;99.90;;;;;;5070248;28;20102;-77
2022/11/18 04:50:16;;;;;;;49.08;34.42;;;8.90;99.90;;;;;;5071150;28;20064;-78
2022/11/18 04:52:43;;;;;;;62.30;39.10;;;8.80;99.90;;;;;;5068824;28;20037;-78
2022/11/18 04:55:11;;;;;;;80.60;48.50;;;8.90;99.90;;;;;;5070771;28;20087;-80
2022/11/18 04:57:38;;;;;;;80.22;48.63;;;8.90;99.90;;;;;;5069389;28;20108;-79
2022/11/18 05:00:07;;;;;;;68.47;42.30;;;8.90;99.90;;;;;;5070641;28;20036;-80
2022/11/18 05:02:34;;;;;;;54.70;34.97;;;9.00;99.90;;;;;;5070302;28;20117;-80
2022/11/18 05:05:02;;;;;;;54.15;34.78;;;9.00;99.90;;;;;;5070540;28;20509;-79
2022/11/18 05:07:30;;;;;;;53.33;32.92;;;9.00;99.90;;;;;;5070068;28;20036;-78
2022/11/18 05:09:57;;;;;;;59.00;36.85;;;9.00;99.90;;;;;;5070427;28;20193;-80
2022/11/18 05:15:09;;;;;;;58.95;38.90;;;9.00;99.90;;;;;;5070764;28;20052;-77
2022/11/18 05:17:37;;;;;;;55.70;35.67;;;9.00;99.90;;;;;;5069854;28;20105;-79
2022/11/18 05:20:05;;;;;;;49.60;33.28;;;9.00;99.90;;;;;;5070287;28;20045;-79
2022/11/18 05:22:33;;;;;;;47.35;31.00;;;9.00;99.90;;;;;;5070248;28;20541;-79
2022/11/18 05:25:01;;;;;;;50.60;32.90;;;9.00;99.90;;;;;;5069627;28;20110;-78
2022/11/18 05:27:28;;;;;;;43.65;28.40;;;9.00;99.90;;;;;;5069843;28;20123;-78
2022/11/18 05:29:55;;;;;;;43.92;29.23;;;9.10;99.90;;;;;;5070156;28;20048;-80
2022/11/18 05:32:23;;;;;;;41.75;28.13;;;9.10;99.90;;;;;;5068848;28;20173;-79
2022/11/18 05:34:50;;;;;;;42.80;29.65;;;9.10;99.90;;;;;;5069181;28;20377;-77
2022/11/18 05:37:17;;;;;;;50.95;31.70;;;9.10;99.90;;;;;;5069938;28;20044;-79
2022/11/18 05:39:46;;;;;;;51.45;34.13;;;9.20;99.90;;;;;;5069328;28;20123;-76
2022/11/18 05:44:58;;;;;;;49.28;31.83;;;9.10;99.90;;;;;;5070018;28;20033;-78
2022/11/18 05:47:26;;;;;;;46.20;30.33;;;9.10;99.90;;;;;;5070782;28;20033;-77
2022/11/18 05:49:53;;;;;;;53.55;34.08;;;9.10;99.90;;;;;;5067228;28;20040;-77
2022/11/18 05:52:20;;;;;;;52.70;34.67;;;9.00;99.90;;;;;;5069574;28;20036;-78
2022/11/18 05:54:50;;;;;;;50.45;32.03;;;9.10;99.90;;;;;;5068265;28;20048;-77
2022/11/18 05:57:18;;;;;;;47.15;31.48;;;9.10;99.90;;;;;;5069965;28;20396;-80
2022/11/18 05:59:45;;;;;;;49.50;33.25;;;9.00;99.90;;;;;;5072645;28;20048;-80
2022/11/18 06:02:16;;;;;;;54.00;33.95;;;9.10;99.90;;;;;;5073440;28;20040;-78
2022/11/18 06:04:46;;;;;;;50.60;33.17;;;9.10;99.90;;;;;;5070789;28;20032;-80
2022/11/18 06:07:20;;;;;;;48.33;32.40;;;9.20;99.90;;;;;;5069921;28;20049;-77
2022/11/18 06:09:51;;;;;;;52.15;32.92;;;9.30;99.90;;;;;;5067570;28;20045;-78
2022/11/18 06:12:24;;;;;;;45.25;28.88;;;9.30;99.90;;;;;;5067828;28;20052;-79
2022/11/18 06:14:54;;;;;;;49.60;32.05;;;9.40;99.90;;;;;;5066559;28;20052;-78
2022/11/18 06:17:25;;;;;;;50.42;36.45;;;9.40;99.90;;;;;;5091877;28;20100;-78
2022/11/18 06:19:53;;;;;;;50.63;37.50;;;9.40;99.90;;;;;;5084682;28;20048;-79
2022/11/18 06:22:20;;;;;;;74.10;46.55;;;9.50;99.90;;;;;;5069390;28;20067;-78
2022/11/18 06:24:49;;;;;;;84.05;50.42;;;9.60;99.90;;;;;;5069338;28;20197;-79
2022/11/18 06:27:18;;;;;;;85.22;49.65;;;9.60;99.90;;;;;;5068965;28;20052;-79
2022/11/18 06:29:45;;;;;;;68.00;40.83;;;9.60;99.90;;;;;;5068690;28;20033;-78
2022/11/18 06:32:12;;;;;;;62.15;40.80;;;9.60;99.90;;;;;;5069651;28;20140;-78
2022/11/18 06:34:39;;;;;;;71.78;43.15;;;9.70;99.90;;;;;;5069161;28;20044;-76
2022/11/18 06:37:13;;;;;;;80.07;50.42;;;9.70;99.90;;;;;;5070000;28;20606;-77
2022/11/18 06:39:41;;;;;;;72.57;46.70;;;9.70;99.90;;;;;;5069459;28;20043;-77
2022/11/18 06:42:09;;;;;;;64.57;42.03;;;9.70;99.90;;;;;;5070646;28;20094;-79
2022/11/18 06:44:36;;;;;;;62.92;40.42;;;9.70;99.90;;;;;;5072055;28;20875;-78
2022/11/18 06:47:04;;;;;;;60.00;37.45;;;9.70;99.90;;;;;;5073326;28;20045;-79
2022/11/18 06:49:32;;;;;;;54.70;36.00;;;9.70;99.90;;;;;;5069979;28;20135;-79
2022/11/18 06:51:59;;;;;;;54.75;36.13;;;9.80;99.90;;;;;;5068730;28;20109;-78
2022/11/18 06:54:27;;;;;;;50.25;34.45;;;9.90;99.90;;;;;;5070805;28;20040;-79
2022/11/18 06:56:54;;;;;;;62.00;38.17;;;10.00;99.90;;;;;;5071194;28;20032;-78
2022/11/18 06:59:23;;;;;;;63.20;42.00;;;10.00;99.90;;;;;;5067702;28;20106;-79
2022/11/18 07:01:51;;;;;;;64.93;40.42;;;10.10;99.90;;;;;;5069244;28;20063;-78
2022/11/18 07:04:19;;;;;;;79.75;51.75;;;10.10;99.90;;;;;;5069833;28;20048;-81
2022/11/18 07:06:46;;;;;;;75.43;50.05;;;10.20;99.90;;;;;;5068606;28;20048;-80
2022/11/18 07:09:14;;;;;;;80.05;52.50;;;10.20;99.90;;;;;;5066877;28;20562;-80
2022/11/18 07:11:41;;;;;;;70.65;48.00;;;10.10;99.90;;;;;;5069329;28;20044;-79
2022/11/18 07:14:09;;;;;;;67.95;47.20;;;10.10;99.90;;;;;;5068266;28;20048;-76
2022/11/18 07:16:37;;;;;;;72.40;48.85;;;10.00;99.90;;;;;;5068630;28;20094;-77
2022/11/18 07:19:09;;;;;;;75.72;52.70;;;10.00;99.90;;;;;;5058069;28;20098;-79
2022/11/18 07:21:37;;;;;;;68.00;48.38;;;10.10;99.90;;;;;;5067432;28;20057;-79
2022/11/18 07:24:07;;;;;;;68.38;48.97;;;10.10;99.90;;;;;;5068818;28;20049;-77
2022/11/18 07:26:34;;;;;;;63.58;47.75;;;10.20;99.90;;;;;;5070219;28;20070;-80
2022/11/18 07:29:02;;;;;;;67.30;49.22;;;10.20;99.90;;;;;;5072151;28;20102;-79
2022/11/18 07:31:30;;;;;;;81.45;58.85;;;10.20;99.90;;;;;;5072410;28;20045;-78
2022/11/18 07:33:59;;;;;;;91.63;63.22;;;10.30;99.90;;;;;;5071754;28;20414;-77
2022/11/18 07:36:28;;;;;;;98.72;69.00;;;10.30;99.90;;;;;;5074214;28;20047;-79
2022/11/18 07:38:58;;;;;;;95.50;64.28;;;10.30;99.90;;;;;;5071796;28;20033;-79
2022/11/18 07:41:26;;;;;;;112.22;74.10;;;10.30;99.90;;;;;;5071826;28;20067;-80
2022/11/18 07:43:55;;;;;;;109.82;71.03;;;10.30;99.90;;;;;;5072866;28;20108;-80
2022/11/18 07:46:26;;;;;;;100.55;68.35;;;10.30;99.90;;;;;;5068138;28;20032;-80
2022/11/18 07:48:55;;;;;;;97.60;68.95;;;10.40;99.90;;;;;;5068899;28;20491;-82
2022/11/18 07:51:26;;;;;;;109.13;71.78;;;10.50;99.90;;;;;;5071553;28;20494;-81
2022/11/18 07:53:53;;;;;;;105.25;71.82;;;10.50;99.90;;;;;;5072126;28;20048;-82
2022/11/18 07:56:21;;;;;;;102.95;67.63;;;10.50;99.90;;;;;;5071445;28;20113;-84
2022/11/18 07:58:54;;;;;;;106.00;71.45;;;10.60;99.90;;;;;;5072128;28;20044;-78
2022/11/18 08:01:23;;;;;;;116.22;72.32;;;10.60;99.90;;;;;;5071244;28;20047;-80
2022/11/18 08:03:50;;;;;;;97.07;62.92;;;10.60;99.90;;;;;;5072944;28;20055;-78
2022/11/18 08:06:19;;;;;;;97.53;64.90;;;10.60;99.90;;;;;;5072516;28;20085;-78
2022/11/18 08:08:48;;;;;;;95.90;66.50;;;10.60;99.90;;;;;;5071759;28;20044;-79
2022/11/18 08:11:18;;;;;;;86.50;60.28;;;10.60;99.90;;;;;;5072368;28;20040;-80
2022/11/18 08:13:45;;;;;;;84.57;57.70;;;10.60;99.90;;;;;;5072022;28;20068;-78
2022/11/18 08:16:14;;;;;;;102.55;67.43;;;10.60;99.90;;;;;;5071522;28;20472;-78
2022/11/18 08:18:42;;;;;;;105.13;67.05;;;10.70;99.90;;;;;;5072020;28;20043;-81
2022/11/18 08:21:10;;;;;;;139.55;97.10;;;10.60;99.90;;;;;;5073001;28;20036;-80
2022/11/18 08:23:38;;;;;;;131.35;91.57;;;10.60;99.90;;;;;;5072238;28;20510;-80
2022/11/18 08:26:09;;;;;;;140.40;96.40;;;10.70;99.90;;;;;;5071899;28;20040;-79
2022/11/18 08:28:36;;;;;;;141.82;100.82;;;10.70;99.90;;;;;;5073178;28;20048;-82
2022/11/18 08:31:10;;;;;;;118.72;84.00;;;10.70;99.90;;;;;;5075774;28;20040;-79
2022/11/18 08:33:37;;;;;;;115.40;81.30;;;10.70;99.90;;;;;;5072700;28;20079;-80
2022/11/18 08:36:09;;;;;;;103.03;75.47;;;10.60;99.90;;;;;;5071095;28;20167;-79
2022/11/18 08:38:36;;;;;;;102.25;67.53;;;10.60;99.90;;;;;;5068733;28;20055;-80
2022/11/18 08:41:06;;;;;;;86.40;62.00;;;10.60;99.90;;;;;;5071969;28;20124;-79
2022/11/18 08:43:34;;;;;;;98.07;71.95;;;10.60;99.90;;;;;;5075479;28;20123;-80
2022/11/18 08:46:02;;;;;;;97.75;74.25;;;10.70;99.90;;;;;;5090398;28;20041;-78
2022/11/18 08:48:29;;;;;;;92.13;66.00;;;10.80;99.90;;;;;;5084857;28;20040;-81
2022/11/18 08:50:58;;;;;;;99.65;72.22;;;10.90;99.90;;;;;;5072124;28;20045;-80
2022/11/18 08:53:25;;;;;;;98.72;71.22;;;11.10;99.90;;;;;;5070221;28;20070;-80
2022/11/18 08:55:56;;;;;;;116.13;81.75;;;11.10;99.90;;;;;;5068652;28;20048;-81
2022/11/18 08:58:24;;;;;;;118.60;83.43;;;11.20;99.90;;;;;;5070560;28;20036;-79
2022/11/18 09:00:52;;;;;;;131.57;94.13;;;11.30;99.90;;;;;;5070512;28;20099;-78
2022/11/18 09:03:19;;;;;;;129.90;90.57;;;11.40;99.90;;;;;;5070061;28;20045;-78
2022/11/18 09:05:47;;;;;;;125.38;91.53;;;11.40;99.90;;;;;;5070519;28;20055;-79
2022/11/18 09:08:15;;;;;;;129.48;92.30;;;11.50;99.90;;;;;;5070488;28;20087;-80
2022/11/18 09:10:42;;;;;;;108.60;76.85;;;11.60;99.90;;;;;;5070899;28;20036;-77
2022/11/18 09:13:09;;;;;;;111.75;82.38;;;11.60;99.90;;;;;;5070763;28;20076;-79
2022/11/18 09:15:38;;;;;;;119.95;87.05;;;11.60;99.90;;;;;;5070995;28;20102;-79
2022/11/18 09:18:05;;;;;;;114.00;81.88;;;11.60;99.90;;;;;;5070313;28;20068;-80
2022/11/18 09:20:33;;;;;;;110.22;79.30;;;11.60;99.90;;;;;;5071277;28;20040;-79
2022/11/18 09:23:00;;;;;;;106.97;78.32;;;11.50;99.90;;;;;;5070573;28;20054;-78
2022/11/18 09:25:27;;;;;;;111.60;83.55;;;11.50;99.90;;;;;;5069360;28;20049;-77
2022/11/18 09:27:55;;;;;;;113.22;82.38;;;11.50;99.90;;;;;;5069997;28;20048;-78
2022/11/18 09:30:22;;;;;;;105.75;78.10;;;11.50;99.90;;;;;;5070471;28;20062;-79
2022/11/18 09:32:51;;;;;;;93.55;71.95;;;11.60;99.90;;;;;;5070110;28;20049;-78
2022/11/18 09:35:18;;;;;;;88.65;67.22;;;11.70;99.90;;;;;;5071256;28;20044;-79
2022/11/18 09:37:46;;;;;;;107.38;78.10;;;11.80;99.90;;;;;;5070561;28;20043;-79
2022/11/18 09:40:17;;;;;;;110.07;84.63;;;11.90;99.90;;;;;;5077158;28;20048;-78
2022/11/18 09:42:57;;;;;;;109.53;81.82;;;12.00;99.90;;;;;;5087880;28;20036;-78
2022/11/18 09:45:28;;;;;;;99.13;73.35;;;12.20;99.90;;;;;;5080010;28;20089;-79
2022/11/18 09:48:01;;;;;;;88.65;67.93;;;12.30;99.90;;;;;;5074488;28;20052;-78
2022/11/18 09:50:28;;;;;;;71.40;53.90;;;12.40;99.90;;;;;;5070800;28;20041;-79
2022/11/18 09:53:07;;;;;;;73.93;57.25;;;12.60;99.90;;;;;;5072606;28;20033;-77
2022/11/18 09:55:38;;;;;;;72.57;55.22;;;12.90;99.90;;;;;;5071951;28;20487;-79
2022/11/18 09:58:06;;;;;;;76.45;56.00;;;13.00;99.90;;;;;;5073029;28;20527;-79
2022/11/18 10:00:34;;;;;;;82.35;62.90;;;13.10;99.90;;;;;;5071813;28;20132;-78
2022/11/18 10:03:05;;;;;;;71.22;54.55;;;13.20;99.90;;;;;;5071901;28;20128;-78
2022/11/18 10:05:45;;;;;;;66.97;52.50;;;13.20;99.90;;;;;;5069908;28;20056;-79
2022/11/18 10:08:24;;;;;;;65.30;48.88;;;13.30;99.90;;;;;;5070195;28;20500;-80
2022/11/18 10:11:00;;;;;;;62.33;46.63;;;13.40;99.90;;;;;;5069617;28;20043;-78
2022/11/18 10:13:42;;;;;;;59.00;43.50;;;13.60;99.90;;;;;;5070076;28;20081;-79
2022/11/18 10:16:23;;;;;;;50.22;39.22;;;13.60;99.90;;;;;;5069922;28;20040;-77
2022/11/18 10:18:59;;;;;;;56.78;43.08;;;13.50;99.90;;;;;;5069336;28;20418;-78
2022/11/18 10:21:38;;;;;;;53.72;41.83;;;13.60;99.90;;;;;;5070005;28;20067;-79
2022/11/18 10:24:12;;;;;;;57.30;41.80;;;13.70;99.90;;;;;;5067345;28;20045;-78
2022/11/18 10:26:41;;;;;;;50.15;39.20;;;14.00;99.90;;;;;;5069365;28;20134;-78
2022/11/18 10:29:09;;;;;;;57.10;45.63;;;14.20;99.90;;;;;;5068857;28;20102;-76
2022/11/18 10:31:38;;;;;;;54.45;40.45;;;14.40;99.90;;;;;;5070901;28;20052;-77
2022/11/18 10:34:13;;;;;;;51.53;39.15;;;14.50;99.90;;;;;;5070829;28;20048;-78
2022/11/18 10:36:40;;;;;;;45.50;34.65;;;14.80;99.90;;;;;;5069446;28;20048;-79
2022/11/18 10:39:11;;;;;;;54.17;39.92;;;15.20;99.90;;;;;;5068164;28;20542;-77
2022/11/18 10:41:43;;;;;;;43.28;33.75;;;15.40;99.90;;;;;;5069293;28;20049;-79
2022/11/18 10:44:31;;;;;;;43.78;33.65;;;15.50;99.90;;;;;;5070094;28;20048;-76
2022/11/18 10:47:21;;;;;;;33.85;27.58;;;15.50;99.90;;;;;;5070951;28;20045;-79
2022/11/18 10:49:50;;;;;;;32.10;24.83;;;15.50;99.90;;;;;;5072752;28;20479;-78
2022/11/18 10:52:17;;;;;;;33.78;25.67;;;15.50;99.90;;;;;;5073462;28;20040;-78
2022/11/18 10:54:45;;;;;;;33.20;25.55;;;15.50;99.90;;;;;;5070911;28;20048;-78
2022/11/18 10:57:19;;;;;;;35.17;28.17;;;15.70;99.90;;;;;;5072549;28;20056;-78
2022/11/18 10:59:50;;;;;;;37.45;29.13;;;15.90;99.90;;;;;;5076193;28;20036;-77
2022/11/18 11:02:20;;;;;;;37.40;27.42;;;16.10;99.90;;;;;;5075289;28;20044;-77
2022/11/18 11:04:52;;;;;;;37.17;26.70;;;16.30;99.90;;;;;;5074992;28;20091;-78
2022/11/18 11:07:26;;;;;;;35.85;24.25;;;16.60;99.90;;;;;;5072832;28;20041;-78
2022/11/18 11:10:01;;;;;;;32.47;24.17;;;16.90;99.90;;;;;;5078353;28;20040;-77
2022/11/18 11:12:31;;;;;;;34.35;24.08;;;17.00;99.90;;;;;;5086713;28;20048;-79
2022/11/18 11:15:03;;;;;;;35.00;22.45;;;17.10;99.90;;;;;;5083762;28;20053;-79
2022/11/18 11:17:34;;;;;;;49.58;39.15;;;17.00;99.90;;;;;;5078275;28;20044;-77
2022/11/18 11:20:07;;;;;;;37.65;26.13;;;16.80;99.90;;;;;;5081048;28;20094;-79
2022/11/18 11:22:34;;;;;;;22.20;15.82;;;16.60;99.90;;;;;;5076972;28;20052;-80
2022/11/18 11:25:02;;;;;;;27.73;17.80;;;16.60;99.90;;;;;;5077039;28;20094;-80
2022/11/18 11:27:49;;;;;;;27.70;18.05;;;16.70;99.90;;;;;;5079000;28;20102;-79
2022/11/18 11:30:19;;;;;;;21.52;14.20;;;16.80;99.90;;;;;;5077509;28;20044;-78
2022/11/18 11:33:16;;;;;;;15.48;10.30;;;16.80;99.90;;;;;;5076644;28;20044;-79
2022/11/18 11:35:57;;;;;;;13.55;9.57;;;16.90;99.90;;;;;;5067039;28;20060;-79
2022/11/18 11:38:35;;;;;;;15.07;9.85;;;16.80;99.90;;;;;;5073725;28;20037;-84
2022/11/18 11:41:12;;;;;;;14.57;10.48;;;16.60;99.90;;;;;;5078108;28;20047;-77
2022/11/18 13:18:48;;;;;;;10.80;7.93;;;14.50;99.90;;;;;;5023658;28;20052;-79
2022/11/18 13:24:12;;;;;;;8.85;6.57;;;13.90;99.90;;;;;;5009421;28;20050;-80
2022/11/18 13:26:41;;;;;;;7.82;5.35;;;13.60;99.90;;;;;;4993734;28;20045;-80
2022/11/18 13:29:28;;;;;;;7.28;4.80;;;13.40;99.90;;;;;;4989729;28;20125;-79
2022/11/18 13:32:16;;;;;;;6.80;5.03;;;13.30;99.90;;;;;;4990288;28;20079;-79
2022/11/18 13:34:47;;;;;;;8.43;4.32;;;13.30;99.90;;;;;;4990056;28;20034;-79
2022/11/18 13:37:18;;;;;;;6.65;4.80;;;13.30;99.90;;;;;;4989444;28;20046;-79
2022/11/18 13:39:47;;;;;;;7.38;5.00;;;13.20;99.90;;;;;;5034161;23;20046;-83
2022/11/18 13:46:20;;;;;;;10.85;6.35;;;13.00;99.90;;;;;;4983424;28;20042;-83
2022/11/18 13:48:54;;;;;;;9.80;6.43;;;12.90;99.90;;;;;;4960168;28;20062;-78
2022/11/18 13:51:23;;;;;;;11.75;9.20;;;12.80;99.90;;;;;;4963573;28;20157;-76
2022/11/18 13:53:50;;;;;;;10.85;7.93;;;12.80;99.90;;;;;;4962262;28;20036;-77
2022/11/18 13:56:22;;;;;;;15.60;7.82;;;12.80;99.90;;;;;;4951318;28;20051;-79
2022/11/18 13:58:55;;;;;;;17.73;14.65;;;12.70;99.90;;;;;;4949915;28;20451;-77
2022/11/18 14:01:23;;;;;;;21.23;13.80;;;12.60;99.90;;;;;;4953665;28;20053;-77
2022/11/18 14:03:57;;;;;;;11.77;8.93;;;12.50;99.90;;;;;;4963751;28;20047;-77
2022/11/18 14:06:26;;;;;;;14.80;8.82;;;12.40;99.90;;;;;;4961540;28;20046;-77
2022/11/18 14:09:15;;;;;;;10.45;7.18;;;12.30;99.90;;;;;;4962579;28;20047;-77
2022/11/18 14:11:44;;;;;;;14.63;9.05;;;12.30;99.90;;;;;;4952296;28;20039;-77
2022/11/18 14:14:13;;;;;;;11.55;7.28;;;12.40;99.90;;;;;;4941226;29;20130;-76
2022/11/18 14:16:41;;;;;;;14.18;7.97;;;12.30;99.90;;;;;;4941689;29;20158;-78
2022/11/18 14:19:29;;;;;;;15.65;10.75;;;12.30;99.90;;;;;;4941399;29;20039;-77
2022/11/18 14:22:03;;;;;;;16.17;10.35;;;12.20;99.90;;;;;;4942798;28;20047;-78
2022/11/18 14:24:31;;;;;;;13.82;10.27;;;12.20;99.90;;;;;;4944706;29;20039;-78
2022/11/18 14:26:58;;;;;;;15.57;11.02;;;12.20;99.90;;;;;;4949910;29;20046;-77
2022/11/18 14:29:26;;;;;;;25.45;13.55;;;12.20;99.90;;;;;;4945528;29;20082;-77
2022/11/18 14:32:14;;;;;;;16.83;12.10;;;12.20;99.90;;;;;;4949231;29;20523;-75
2022/11/18 14:34:43;;;;;;;16.85;11.90;;;12.10;99.90;;;;;;4948938;29;20061;-77
2022/11/18 14:37:12;;;;;;;15.90;11.07;;;12.10;99.90;;;;;;4943895;29;20039;-76